Terminal Aerodrome Forecast
Issued by NWS

Home | Current Version | Previous Version | Text Only | Print | Product List | Glossary On
Versions: 1 2 3 4 5 6 7 8 9 10 11 12 13 14 15 16 17 18 19 20 21 22 23 24 25
000
FTUS42 KRAH 242334 CCA
TAFRWI
TAF COR
KRWI 242334Z 2500/2524 15008KT P6SM VCTS SCT030CB BKN060 OVC100
      TEMPO 2500/2504 3SM TSRA BR BKN030CB BKN060
     FM250400 20010KT P6SM BKN015
     FM251400 22012G20KT P6SM SCT030
     FM251600 22015G25KT P6SM VCSH BKN040=

USA.gov is the U.S. government's official web portal to all federal, state and local government web resources and services.